Petawawa, Canada
Current Conditions -  °F | °C
As of 5:00 PM on Monday 26 Jan 2015 (Local Time) from CYWA Reporting Station
Broken Clouds Broken Clouds  
Wind Chill:   Ceiling: 20000
Heat Index:   Visibility: 12mi
Dew Point: -8°   Wind: 2mph
Humidity: 52%   Direction: 120°ESE
Pressure: 30.13"   Gusts: NA
Location:  45.9°N, 77.28°W
Report Text: CYWA 262200Z 12002KT 12SM BKN200 M14/M22 A3013 RMK CI4DA-3428FT SLP219
Loading
Personal Weather Stations






























Interactive Weather Map New forecast layout! Learn more

10-Day Weather Forecast

Advertisements
Track Severe Weather on mobile